sensor_id;sensor_type;location;lat;lon;timestamp;P1;durP1;ratioP1;P2;durP2;ratioP2
55609;SDS011;41486;52.502;13.486;2023-11-21T00:00:05;6.03;;;3.65;;
55609;SDS011;41486;52.502;13.486;2023-11-21T00:02:40;7.15;;;4.63;;
55609;SDS011;41486;52.502;13.486;2023-11-21T00:05:09;6.45;;;3.88;;
55609;SDS011;41486;52.502;13.486;2023-11-21T00:07:37;8.73;;;4.55;;
55609;SDS011;41486;52.502;13.486;2023-11-21T00:10:07;7.03;;;5.22;;
55609;SDS011;41486;52.502;13.486;2023-11-21T00:12:37;8.93;;;5.43;;
55609;SDS011;41486;52.502;13.486;2023-11-21T00:15:08;9.48;;;5.55;;
55609;SDS011;41486;52.502;13.486;2023-11-21T00:17:38;9.45;;;5.30;;
55609;SDS011;41486;52.502;13.486;2023-11-21T00:20:06;10.20;;;6.10;;
55609;SDS011;41486;52.502;13.486;2023-11-21T00:22:35;14.25;;;5.97;;
55609;SDS011;41486;52.502;13.486;2023-11-21T00:25:06;13.70;;;7.03;;
55609;SDS011;41486;52.502;13.486;2023-11-21T00:27:35;14.07;;;7.30;;
55609;SDS011;41486;52.502;13.486;2023-11-21T00:30:04;13.13;;;6.97;;
55609;SDS011;41486;52.502;13.486;2023-11-21T00:32:34;14.88;;;8.07;;
55609;SDS011;41486;52.502;13.486;2023-11-21T00:35:03;18.48;;;8.07;;
55609;SDS011;41486;52.502;13.486;2023-11-21T00:37:32;13.43;;;7.15;;
55609;SDS011;41486;52.502;13.486;2023-11-21T00:40:00;15.00;;;7.45;;
55609;SDS011;41486;52.502;13.486;2023-11-21T00:42:34;15.10;;;8.10;;
55609;SDS011;41486;52.502;13.486;2023-11-21T00:45:03;14.88;;;8.93;;
55609;SDS011;41486;52.502;13.486;2023-11-21T00:47:32;18.13;;;9.43;;
55609;SDS011;41486;52.502;13.486;2023-11-21T00:50:00;15.88;;;8.43;;
55609;SDS011;41486;52.502;13.486;2023-11-21T00:52:29;17.25;;;9.10;;
55609;SDS011;41486;52.502;13.486;2023-11-21T00:54:57;18.92;;;8.90;;
55609;SDS011;41486;52.502;13.486;2023-11-21T00:57:26;19.13;;;8.95;;
55609;SDS011;41486;52.502;13.486;2023-11-21T00:59:56;21.23;;;9.43;;
55609;SDS011;41486;52.502;13.486;2023-11-21T01:02:24;21.48;;;10.43;;
55609;SDS011;41486;52.502;13.486;2023-11-21T01:04:52;22.73;;;11.05;;
55609;SDS011;41486;52.502;13.486;2023-11-21T01:07:20;21.02;;;10.02;;
55609;SDS011;41486;52.502;13.486;2023-11-21T01:09:49;22.98;;;10.73;;
55609;SDS011;41486;52.502;13.486;2023-11-21T01:12:18;19.88;;;11.07;;
55609;SDS011;41486;52.502;13.486;2023-11-21T01:14:46;22.13;;;10.82;;
55609;SDS011;41486;52.502;13.486;2023-11-21T01:17:15;25.38;;;11.50;;
55609;SDS011;41486;52.502;13.486;2023-11-21T01:19:43;20.17;;;9.75;;
55609;SDS011;41486;52.502;13.486;2023-11-21T01:22:11;27.83;;;11.48;;
55609;SDS011;41486;52.502;13.486;2023-11-21T01:24:39;22.02;;;11.00;;
55609;SDS011;41486;52.502;13.486;2023-11-21T01:27:07;25.42;;;11.38;;
55609;SDS011;41486;52.502;13.486;2023-11-21T01:29:35;29.65;;;11.88;;
55609;SDS011;41486;52.502;13.486;2023-11-21T01:32:03;31.77;;;12.20;;
55609;SDS011;41486;52.502;13.486;2023-11-21T01:34:36;31.52;;;12.60;;
55609;SDS011;41486;52.502;13.486;2023-11-21T01:37:04;24.67;;;10.88;;
55609;SDS011;41486;52.502;13.486;2023-11-21T01:39:33;31.55;;;12.40;;
55609;SDS011;41486;52.502;13.486;2023-11-21T01:42:01;32.72;;;12.57;;
55609;SDS011;41486;52.502;13.486;2023-11-21T01:44:29;33.03;;;13.05;;
55609;SDS011;41486;52.502;13.486;2023-11-21T01:46:57;34.10;;;14.32;;
55609;SDS011;41486;52.502;13.486;2023-11-21T01:49:25;32.03;;;13.27;;
55609;SDS011;41486;52.502;13.486;2023-11-21T01:51:55;38.80;;;13.70;;
55609;SDS011;41486;52.502;13.486;2023-11-21T01:54:23;35.30;;;11.95;;
55609;SDS011;41486;52.502;13.486;2023-11-21T01:56:51;29.88;;;13.27;;
55609;SDS011;41486;52.502;13.486;2023-11-21T01:59:21;35.22;;;15.00;;
55609;SDS011;41486;52.502;13.486;2023-11-21T02:01:50;39.13;;;14.23;;
55609;SDS011;41486;52.502;13.486;2023-11-21T02:04:18;41.30;;;16.05;;
55609;SDS011;41486;52.502;13.486;2023-11-21T02:06:48;32.83;;;12.73;;
55609;SDS011;41486;52.502;13.486;2023-11-21T02:09:24;33.75;;;13.82;;
55609;SDS011;41486;52.502;13.486;2023-11-21T02:11:53;36.15;;;15.40;;
55609;SDS011;41486;52.502;13.486;2023-11-21T02:14:24;32.72;;;12.57;;
55609;SDS011;41486;52.502;13.486;2023-11-21T02:16:54;26.42;;;11.50;;
55609;SDS011;41486;52.502;13.486;2023-11-21T02:19:23;24.90;;;9.90;;
55609;SDS011;41486;52.502;13.486;2023-11-21T02:21:52;27.80;;;11.23;;
55609;SDS011;41486;52.502;13.486;2023-11-21T02:24:22;27.40;;;11.45;;
55609;SDS011;41486;52.502;13.486;2023-11-21T02:26:51;30.55;;;10.73;;
55609;SDS011;41486;52.502;13.486;2023-11-21T02:29:20;21.92;;;9.00;;
55609;SDS011;41486;52.502;13.486;2023-11-21T02:31:54;25.35;;;9.80;;
55609;SDS011;41486;52.502;13.486;2023-11-21T02:34:23;23.40;;;8.27;;
55609;SDS011;41486;52.502;13.486;2023-11-21T02:36:51;17.52;;;7.75;;
55609;SDS011;41486;52.502;13.486;2023-11-21T02:39:20;19.40;;;7.45;;
55609;SDS011;41486;52.502;13.486;2023-11-21T02:41:50;18.10;;;7.65;;
55609;SDS011;41486;52.502;13.486;2023-11-21T02:44:18;15.52;;;7.68;;
55609;SDS011;41486;52.502;13.486;2023-11-21T02:46:47;16.65;;;7.18;;
55609;SDS011;41486;52.502;13.486;2023-11-21T02:49:15;10.68;;;5.35;;
55609;SDS011;41486;52.502;13.486;2023-11-21T02:51:43;11.38;;;5.63;;
55609;SDS011;41486;52.502;13.486;2023-11-21T02:54:11;14.82;;;6.95;;
55609;SDS011;41486;52.502;13.486;2023-11-21T02:56:39;12.13;;;5.97;;
55609;SDS011;41486;52.502;13.486;2023-11-21T02:59:09;10.52;;;6.32;;
55609;SDS011;41486;52.502;13.486;2023-11-21T03:01:37;10.02;;;5.22;;
55609;SDS011;41486;52.502;13.486;2023-11-21T03:04:05;13.05;;;6.32;;
55609;SDS011;41486;52.502;13.486;2023-11-21T03:06:33;9.52;;;4.97;;
55609;SDS011;41486;52.502;13.486;2023-11-21T03:09:01;11.18;;;6.35;;
55609;SDS011;41486;52.502;13.486;2023-11-21T03:11:29;13.68;;;6.57;;
55609;SDS011;41486;52.502;13.486;2023-11-21T03:13:59;12.10;;;6.00;;
55609;SDS011;41486;52.502;13.486;2023-11-21T03:16:28;8.65;;;5.80;;
55609;SDS011;41486;52.502;13.486;2023-11-21T03:18:57;6.75;;;4.97;;
55609;SDS011;41486;52.502;13.486;2023-11-21T03:21:27;12.27;;;5.68;;
55609;SDS011;41486;52.502;13.486;2023-11-21T03:23:55;9.60;;;5.32;;
55609;SDS011;41486;52.502;13.486;2023-11-21T03:26:23;10.00;;;5.88;;
55609;SDS011;41486;52.502;13.486;2023-11-21T03:28:52;10.20;;;6.63;;
55609;SDS011;41486;52.502;13.486;2023-11-21T03:31:20;11.02;;;5.45;;
55609;SDS011;41486;52.502;13.486;2023-11-21T03:33:50;8.73;;;5.65;;
55609;SDS011;41486;52.502;13.486;2023-11-21T03:36:20;9.95;;;5.30;;
55609;SDS011;41486;52.502;13.486;2023-11-21T03:38:48;10.45;;;4.72;;
55609;SDS011;41486;52.502;13.486;2023-11-21T03:41:16;11.02;;;5.82;;
55609;SDS011;41486;52.502;13.486;2023-11-21T03:43:44;8.30;;;5.15;;
55609;SDS011;41486;52.502;13.486;2023-11-21T03:46:13;6.97;;;4.68;;
55609;SDS011;41486;52.502;13.486;2023-11-21T03:48:42;8.18;;;5.68;;
55609;SDS011;41486;52.502;13.486;2023-11-21T03:51:11;8.30;;;4.70;;
55609;SDS011;41486;52.502;13.486;2023-11-21T03:53:39;6.35;;;3.88;;
55609;SDS011;41486;52.502;13.486;2023-11-21T03:56:09;7.68;;;5.30;;
55609;SDS011;41486;52.502;13.486;2023-11-21T03:58:38;7.82;;;4.50;;
55609;SDS011;41486;52.502;13.486;2023-11-21T04:01:06;7.60;;;4.47;;
55609;SDS011;41486;52.502;13.486;2023-11-21T04:03:34;8.32;;;4.97;;
55609;SDS011;41486;52.502;13.486;2023-11-21T04:06:03;5.53;;;4.03;;
55609;SDS011;41486;52.502;13.486;2023-11-21T04:08:34;8.25;;;4.82;;
55609;SDS011;41486;52.502;13.486;2023-11-21T04:11:02;8.38;;;4.90;;
55609;SDS011;41486;52.502;13.486;2023-11-21T04:13:30;10.48;;;4.43;;
55609;SDS011;41486;52.502;13.486;2023-11-21T04:15:58;7.78;;;4.57;;
55609;SDS011;41486;52.502;13.486;2023-11-21T04:18:29;5.22;;;3.78;;
55609;SDS011;41486;52.502;13.486;2023-11-21T04:20:57;9.02;;;3.88;;
55609;SDS011;41486;52.502;13.486;2023-11-21T04:23:25;6.68;;;4.35;;
55609;SDS011;41486;52.502;13.486;2023-11-21T04:25:55;7.85;;;4.57;;
55609;SDS011;41486;52.502;13.486;2023-11-21T04:28:23;8.43;;;4.20;;
55609;SDS011;41486;52.502;13.486;2023-11-21T04:30:52;6.32;;;3.65;;
55609;SDS011;41486;52.502;13.486;2023-11-21T04:33:20;8.38;;;4.63;;
55609;SDS011;41486;52.502;13.486;2023-11-21T04:35:49;6.30;;;3.85;;
55609;SDS011;41486;52.502;13.486;2023-11-21T04:38:17;6.68;;;3.80;;
55609;SDS011;41486;52.502;13.486;2023-11-21T04:40:45;7.10;;;3.58;;
55609;SDS011;41486;52.502;13.486;2023-11-21T04:43:14;5.53;;;3.45;;
55609;SDS011;41486;52.502;13.486;2023-11-21T04:45:43;5.10;;;3.63;;
55609;SDS011;41486;52.502;13.486;2023-11-21T04:48:11;6.55;;;4.03;;
55609;SDS011;41486;52.502;13.486;2023-11-21T04:50:39;7.15;;;3.75;;
55609;SDS011;41486;52.502;13.486;2023-11-21T04:53:07;5.78;;;3.45;;
55609;SDS011;41486;52.502;13.486;2023-11-21T04:55:35;6.22;;;3.42;;
55609;SDS011;41486;52.502;13.486;2023-11-21T04:58:03;6.03;;;3.75;;
55609;SDS011;41486;52.502;13.486;2023-11-21T05:00:32;5.53;;;3.33;;
55609;SDS011;41486;52.502;13.486;2023-11-21T05:03:00;6.55;;;3.33;;
55609;SDS011;41486;52.502;13.486;2023-11-21T05:05:28;5.45;;;3.88;;
55609;SDS011;41486;52.502;13.486;2023-11-21T05:07:57;5.57;;;3.70;;
55609;SDS011;41486;52.502;13.486;2023-11-21T05:10:25;6.38;;;3.35;;
55609;SDS011;41486;52.502;13.486;2023-11-21T05:12:53;4.50;;;2.75;;
55609;SDS011;41486;52.502;13.486;2023-11-21T05:15:21;6.45;;;2.85;;
55609;SDS011;41486;52.502;13.486;2023-11-21T05:17:51;5.70;;;3.50;;
55609;SDS011;41486;52.502;13.486;2023-11-21T05:20:20;4.95;;;2.92;;
55609;SDS011;41486;52.502;13.486;2023-11-21T05:22:48;5.80;;;3.60;;
55609;SDS011;41486;52.502;13.486;2023-11-21T05:25:17;4.72;;;2.45;;
55609;SDS011;41486;52.502;13.486;2023-11-21T05:27:45;3.75;;;2.80;;
55609;SDS011;41486;52.502;13.486;2023-11-21T05:30:13;3.65;;;2.42;;
55609;SDS011;41486;52.502;13.486;2023-11-21T05:32:42;5.55;;;2.63;;
55609;SDS011;41486;52.502;13.486;2023-11-21T05:35:11;4.53;;;2.90;;
55609;SDS011;41486;52.502;13.486;2023-11-21T05:37:42;5.47;;;3.33;;
55609;SDS011;41486;52.502;13.486;2023-11-21T05:40:11;3.80;;;3.13;;
55609;SDS011;41486;52.502;13.486;2023-11-21T05:42:39;4.78;;;2.65;;
55609;SDS011;41486;52.502;13.486;2023-11-21T05:45:08;4.35;;;2.70;;
55609;SDS011;41486;52.502;13.486;2023-11-21T05:47:38;7.93;;;3.15;;
55609;SDS011;41486;52.502;13.486;2023-11-21T05:50:07;4.68;;;2.80;;
55609;SDS011;41486;52.502;13.486;2023-11-21T05:52:39;5.47;;;3.35;;
55609;SDS011;41486;52.502;13.486;2023-11-21T05:55:08;5.35;;;2.80;;
55609;SDS011;41486;52.502;13.486;2023-11-21T05:57:36;4.25;;;2.28;;
55609;SDS011;41486;52.502;13.486;2023-11-21T06:00:06;3.25;;;2.58;;
55609;SDS011;41486;52.502;13.486;2023-11-21T06:02:45;5.90;;;2.75;;
55609;SDS011;41486;52.502;13.486;2023-11-21T06:05:13;3.88;;;2.30;;
55609;SDS011;41486;52.502;13.486;2023-11-21T06:07:43;3.92;;;2.65;;
55609;SDS011;41486;52.502;13.486;2023-11-21T06:10:11;3.67;;;2.50;;
55609;SDS011;41486;52.502;13.486;2023-11-21T06:12:41;4.30;;;2.53;;
55609;SDS011;41486;52.502;13.486;2023-11-21T06:15:10;5.22;;;3.05;;
55609;SDS011;41486;52.502;13.486;2023-11-21T06:17:41;4.15;;;2.63;;
55609;SDS011;41486;52.502;13.486;2023-11-21T06:20:10;4.93;;;2.85;;
55609;SDS011;41486;52.502;13.486;2023-11-21T06:22:42;5.28;;;3.03;;
55609;SDS011;41486;52.502;13.486;2023-11-21T06:25:11;5.95;;;3.08;;
55609;SDS011;41486;52.502;13.486;2023-11-21T06:27:42;4.18;;;3.15;;
55609;SDS011;41486;52.502;13.486;2023-11-21T06:30:12;6.20;;;3.15;;
55609;SDS011;41486;52.502;13.486;2023-11-21T06:32:41;6.30;;;2.92;;
55609;SDS011;41486;52.502;13.486;2023-11-21T06:35:12;4.35;;;2.80;;
55609;SDS011;41486;52.502;13.486;2023-11-21T06:37:44;5.10;;;3.40;;
55609;SDS011;41486;52.502;13.486;2023-11-21T06:40:16;5.85;;;3.47;;
55609;SDS011;41486;52.502;13.486;2023-11-21T06:42:47;5.20;;;3.03;;
55609;SDS011;41486;52.502;13.486;2023-11-21T06:45:15;3.95;;;2.60;;
55609;SDS011;41486;52.502;13.486;2023-11-21T06:47:44;5.88;;;3.08;;
55609;SDS011;41486;52.502;13.486;2023-11-21T06:50:13;5.32;;;3.42;;
55609;SDS011;41486;52.502;13.486;2023-11-21T06:52:41;5.20;;;2.40;;
55609;SDS011;41486;52.502;13.486;2023-11-21T06:55:11;5.05;;;2.97;;
55609;SDS011;41486;52.502;13.486;2023-11-21T06:57:39;5.97;;;2.80;;
55609;SDS011;41486;52.502;13.486;2023-11-21T07:00:08;4.05;;;3.03;;
55609;SDS011;41486;52.502;13.486;2023-11-21T07:02:37;6.55;;;3.10;;
55609;SDS011;41486;52.502;13.486;2023-11-21T07:05:06;5.88;;;3.47;;
55609;SDS011;41486;52.502;13.486;2023-11-21T07:07:34;5.15;;;2.88;;
55609;SDS011;41486;52.502;13.486;2023-11-21T07:10:06;8.57;;;2.83;;
55609;SDS011;41486;52.502;13.486;2023-11-21T07:12:37;7.03;;;2.90;;
55609;SDS011;41486;52.502;13.486;2023-11-21T07:15:05;5.18;;;3.08;;
55609;SDS011;41486;52.502;13.486;2023-11-21T07:17:36;5.53;;;2.95;;
55609;SDS011;41486;52.502;13.486;2023-11-21T07:20:07;7.28;;;3.10;;
55609;SDS011;41486;52.502;13.486;2023-11-21T07:22:37;3.60;;;2.78;;
55609;SDS011;41486;52.502;13.486;2023-11-21T07:25:06;3.97;;;2.55;;
55609;SDS011;41486;52.502;13.486;2023-11-21T07:27:37;4.00;;;3.00;;
55609;SDS011;41486;52.502;13.486;2023-11-21T07:30:05;6.60;;;3.15;;
55609;SDS011;41486;52.502;13.486;2023-11-21T07:32:36;3.65;;;2.50;;
55609;SDS011;41486;52.502;13.486;2023-11-21T07:35:07;5.30;;;2.55;;
55609;SDS011;41486;52.502;13.486;2023-11-21T07:37:36;2.90;;;2.25;;
55609;SDS011;41486;52.502;13.486;2023-11-21T07:40:04;4.07;;;2.10;;
55609;SDS011;41486;52.502;13.486;2023-11-21T07:42:36;3.00;;;2.00;;
55609;SDS011;41486;52.502;13.486;2023-11-21T07:45:05;3.25;;;2.05;;
55609;SDS011;41486;52.502;13.486;2023-11-21T07:47:34;3.67;;;2.42;;
55609;SDS011;41486;52.502;13.486;2023-11-21T07:50:03;3.58;;;1.92;;
55609;SDS011;41486;52.502;13.486;2023-11-21T07:52:34;6.05;;;2.45;;
55609;SDS011;41486;52.502;13.486;2023-11-21T07:55:02;3.90;;;2.33;;
55609;SDS011;41486;52.502;13.486;2023-11-21T07:57:31;5.68;;;2.92;;
55609;SDS011;41486;52.502;13.486;2023-11-21T08:00:00;4.88;;;2.42;;
55609;SDS011;41486;52.502;13.486;2023-11-21T08:02:38;4.55;;;2.55;;
55609;SDS011;41486;52.502;13.486;2023-11-21T08:05:09;5.15;;;2.65;;
55609;SDS011;41486;52.502;13.486;2023-11-21T08:07:50;5.32;;;3.20;;
55609;SDS011;41486;52.502;13.486;2023-11-21T08:10:18;5.15;;;2.70;;
55609;SDS011;41486;52.502;13.486;2023-11-21T08:12:47;8.45;;;3.05;;
55609;SDS011;41486;52.502;13.486;2023-11-21T08:15:18;7.10;;;3.83;;
55609;SDS011;41486;52.502;13.486;2023-11-21T08:17:46;7.70;;;2.92;;
55609;SDS011;41486;52.502;13.486;2023-11-21T08:20:14;7.03;;;3.30;;
55609;SDS011;41486;52.502;13.486;2023-11-21T08:22:45;5.00;;;3.38;;
55609;SDS011;41486;52.502;13.486;2023-11-21T08:25:14;9.82;;;3.92;;
55609;SDS011;41486;52.502;13.486;2023-11-21T08:27:43;9.20;;;5.63;;
55609;SDS011;41486;52.502;13.486;2023-11-21T08:30:12;12.13;;;5.97;;
55609;SDS011;41486;52.502;13.486;2023-11-21T08:32:42;12.15;;;6.45;;
55609;SDS011;41486;52.502;13.486;2023-11-21T08:35:10;11.38;;;5.68;;
55609;SDS011;41486;52.502;13.486;2023-11-21T08:37:38;8.75;;;4.80;;
55609;SDS011;41486;52.502;13.486;2023-11-21T08:40:07;12.95;;;6.35;;
55609;SDS011;41486;52.502;13.486;2023-11-21T08:42:38;12.52;;;6.55;;
55609;SDS011;41486;52.502;13.486;2023-11-21T08:45:07;13.05;;;5.40;;
55609;SDS011;41486;52.502;13.486;2023-11-21T08:47:35;6.85;;;3.75;;
55609;SDS011;41486;52.502;13.486;2023-11-21T08:50:06;9.32;;;3.67;;
55609;SDS011;41486;52.502;13.486;2023-11-21T08:52:35;9.27;;;3.88;;
55609;SDS011;41486;52.502;13.486;2023-11-21T08:55:04;10.05;;;3.30;;
55609;SDS011;41486;52.502;13.486;2023-11-21T08:57:34;8.38;;;3.70;;
55609;SDS011;41486;52.502;13.486;2023-11-21T09:00:02;10.20;;;3.58;;
55609;SDS011;41486;52.502;13.486;2023-11-21T09:02:35;9.05;;;3.92;;
55609;SDS011;41486;52.502;13.486;2023-11-21T09:05:04;9.82;;;4.15;;
55609;SDS011;41486;52.502;13.486;2023-11-21T09:07:35;8.60;;;3.67;;
55609;SDS011;41486;52.502;13.486;2023-11-21T09:10:03;9.38;;;3.10;;
55609;SDS011;41486;52.502;13.486;2023-11-21T09:12:33;11.30;;;3.53;;
55609;SDS011;41486;52.502;13.486;2023-11-21T09:15:02;6.40;;;2.80;;
55609;SDS011;41486;52.502;13.486;2023-11-21T09:17:31;9.30;;;3.78;;
55609;SDS011;41486;52.502;13.486;2023-11-21T09:20:00;7.80;;;3.17;;
55609;SDS011;41486;52.502;13.486;2023-11-21T09:22:32;7.25;;;3.55;;
55609;SDS011;41486;52.502;13.486;2023-11-21T09:25:00;10.55;;;3.97;;
55609;SDS011;41486;52.502;13.486;2023-11-21T09:27:31;6.43;;;2.63;;
55609;SDS011;41486;52.502;13.486;2023-11-21T09:29:59;5.85;;;3.47;;
55609;SDS011;41486;52.502;13.486;2023-11-21T09:32:29;4.70;;;2.17;;
55609;SDS011;41486;52.502;13.486;2023-11-21T09:34:57;4.28;;;2.00;;
55609;SDS011;41486;52.502;13.486;2023-11-21T09:37:28;4.78;;;2.13;;
55609;SDS011;41486;52.502;13.486;2023-11-21T09:39:59;5.90;;;2.85;;
55609;SDS011;41486;52.502;13.486;2023-11-21T09:42:30;3.70;;;1.60;;
55609;SDS011;41486;52.502;13.486;2023-11-21T09:45:05;4.13;;;1.50;;
55609;SDS011;41486;52.502;13.486;2023-11-21T09:47:42;3.40;;;2.13;;
55609;SDS011;41486;52.502;13.486;2023-11-21T09:50:10;5.35;;;2.72;;
55609;SDS011;41486;52.502;13.486;2023-11-21T09:52:43;3.13;;;1.98;;
55609;SDS011;41486;52.502;13.486;2023-11-21T09:55:18;2.90;;;1.25;;
55609;SDS011;41486;52.502;13.486;2023-11-21T09:57:48;2.42;;;1.50;;
55609;SDS011;41486;52.502;13.486;2023-11-21T10:00:16;2.83;;;1.60;;
55609;SDS011;41486;52.502;13.486;2023-11-21T10:02:49;1.23;;;0.98;;
55609;SDS011;41486;52.502;13.486;2023-11-21T10:05:20;1.67;;;1.15;;
55609;SDS011;41486;52.502;13.486;2023-11-21T10:07:52;3.60;;;1.70;;
55609;SDS011;41486;52.502;13.486;2023-11-21T10:10:25;2.08;;;1.38;;
55609;SDS011;41486;52.502;13.486;2023-11-21T10:12:56;2.63;;;1.45;;
55609;SDS011;41486;52.502;13.486;2023-11-21T10:15:25;2.30;;;1.63;;
55609;SDS011;41486;52.502;13.486;2023-11-21T10:17:54;2.92;;;1.92;;
55609;SDS011;41486;52.502;13.486;2023-11-21T10:20:23;2.20;;;1.38;;
55609;SDS011;41486;52.502;13.486;2023-11-21T10:22:52;1.70;;;1.25;;
55609;SDS011;41486;52.502;13.486;2023-11-21T10:25:20;2.40;;;2.00;;
55609;SDS011;41486;52.502;13.486;2023-11-21T10:27:49;4.35;;;2.20;;
55609;SDS011;41486;52.502;13.486;2023-11-21T10:30:24;4.57;;;2.70;;
55609;SDS011;41486;52.502;13.486;2023-11-21T10:32:58;1.63;;;1.08;;
55609;SDS011;41486;52.502;13.486;2023-11-21T10:35:38;3.15;;;1.65;;
55609;SDS011;41486;52.502;13.486;2023-11-21T10:38:07;1.25;;;0.90;;
55609;SDS011;41486;52.502;13.486;2023-11-21T10:40:37;2.05;;;1.15;;
55609;SDS011;41486;52.502;13.486;2023-11-21T10:43:10;6.55;;;1.83;;
55609;SDS011;41486;52.502;13.486;2023-11-21T10:45:39;1.40;;;1.10;;
55609;SDS011;41486;52.502;13.486;2023-11-21T10:48:09;2.67;;;1.65;;
55609;SDS011;41486;52.502;13.486;2023-11-21T10:50:38;2.40;;;1.60;;
55609;SDS011;41486;52.502;13.486;2023-11-21T10:53:06;4.22;;;2.08;;
55609;SDS011;41486;52.502;13.486;2023-11-21T10:55:34;2.22;;;1.50;;
55609;SDS011;41486;52.502;13.486;2023-11-21T10:58:03;1.23;;;0.98;;
55609;SDS011;41486;52.502;13.486;2023-11-21T11:00:34;2.67;;;1.60;;
55609;SDS011;41486;52.502;13.486;2023-11-21T11:03:05;2.83;;;1.73;;
55609;SDS011;41486;52.502;13.486;2023-11-21T11:05:40;2.92;;;1.50;;
55609;SDS011;41486;52.502;13.486;2023-11-21T11:08:18;3.13;;;1.38;;
55609;SDS011;41486;52.502;13.486;2023-11-21T11:10:53;3.28;;;1.50;;
55609;SDS011;41486;52.502;13.486;2023-11-21T11:13:22;2.58;;;1.95;;
55609;SDS011;41486;52.502;13.486;2023-11-21T11:15:52;2.28;;;1.80;;
55609;SDS011;41486;52.502;13.486;2023-11-21T11:18:27;1.60;;;1.23;;
55609;SDS011;41486;52.502;13.486;2023-11-21T11:20:57;2.05;;;1.77;;
55609;SDS011;41486;52.502;13.486;2023-11-21T11:23:39;2.42;;;1.90;;
55609;SDS011;41486;52.502;13.486;2023-11-21T11:26:20;2.22;;;1.80;;
55609;SDS011;41486;52.502;13.486;2023-11-21T11:29:00;2.80;;;1.92;;
55609;SDS011;41486;52.502;13.486;2023-11-21T11:31:39;2.70;;;1.83;;
55609;SDS011;41486;52.502;13.486;2023-11-21T11:34:25;2.53;;;1.85;;
55609;SDS011;41486;52.502;13.486;2023-11-21T11:37:00;3.45;;;2.47;;
55609;SDS011;41486;52.502;13.486;2023-11-21T11:39:30;4.28;;;3.17;;
55609;SDS011;41486;52.502;13.486;2023-11-21T11:42:03;3.58;;;2.42;;
55609;SDS011;41486;52.502;13.486;2023-11-21T11:47:22;3.40;;;2.40;;
55609;SDS011;41486;52.502;13.486;2023-11-21T11:52:43;1.83;;;1.55;;
55609;SDS011;41486;52.502;13.486;2023-11-21T11:55:12;5.47;;;2.20;;
55609;SDS011;41486;52.502;13.486;2023-11-21T11:57:45;2.33;;;1.90;;
55609;SDS011;41486;52.502;13.486;2023-11-21T12:00:15;2.70;;;2.00;;
55609;SDS011;41486;52.502;13.486;2023-11-21T12:02:47;3.83;;;2.42;;
55609;SDS011;41486;52.502;13.486;2023-11-21T12:05:16;5.30;;;2.10;;
55609;SDS011;41486;52.502;13.486;2023-11-21T12:07:46;1.83;;;1.63;;
55609;SDS011;41486;52.502;13.486;2023-11-21T12:10:16;2.50;;;1.80;;
55609;SDS011;41486;52.502;13.486;2023-11-21T12:12:45;5.35;;;2.72;;
55609;SDS011;41486;52.502;13.486;2023-11-21T12:15:14;4.95;;;3.35;;
55609;SDS011;41486;52.502;13.486;2023-11-21T12:17:43;4.60;;;2.83;;
55609;SDS011;41486;52.502;13.486;2023-11-21T12:20:13;2.70;;;1.90;;
55609;SDS011;41486;52.502;13.486;2023-11-21T12:22:44;2.78;;;1.98;;
55609;SDS011;41486;52.502;13.486;2023-11-21T12:25:15;2.53;;;1.85;;
55609;SDS011;41486;52.502;13.486;2023-11-21T12:27:45;2.85;;;2.05;;
55609;SDS011;41486;52.502;13.486;2023-11-21T12:30:16;7.30;;;2.97;;
55609;SDS011;41486;52.502;13.486;2023-11-21T12:32:48;3.17;;;2.10;;
55609;SDS011;41486;52.502;13.486;2023-11-21T12:35:19;2.53;;;1.95;;
55609;SDS011;41486;52.502;13.486;2023-11-21T12:37:51;2.90;;;1.80;;
55609;SDS011;41486;52.502;13.486;2023-11-21T12:40:21;3.65;;;1.58;;
55609;SDS011;41486;52.502;13.486;2023-11-21T12:42:51;2.25;;;1.63;;
55609;SDS011;41486;52.502;13.486;2023-11-21T12:45:20;1.90;;;1.52;;
55609;SDS011;41486;52.502;13.486;2023-11-21T12:47:54;3.90;;;2.53;;
55609;SDS011;41486;52.502;13.486;2023-11-21T12:50:28;2.22;;;1.83;;
55609;SDS011;41486;52.502;13.486;2023-11-21T12:52:59;2.00;;;1.58;;
55609;SDS011;41486;52.502;13.486;2023-11-21T12:55:29;2.22;;;1.73;;
55609;SDS011;41486;52.502;13.486;2023-11-21T12:58:00;3.35;;;2.17;;
55609;SDS011;41486;52.502;13.486;2023-11-21T13:00:35;3.50;;;1.77;;
55609;SDS011;41486;52.502;13.486;2023-11-21T13:03:05;2.80;;;1.90;;
55609;SDS011;41486;52.502;13.486;2023-11-21T13:05:37;4.10;;;2.00;;
55609;SDS011;41486;52.502;13.486;2023-11-21T13:08:06;2.97;;;1.77;;
55609;SDS011;41486;52.502;13.486;2023-11-21T13:10:36;4.88;;;2.10;;
55609;SDS011;41486;52.502;13.486;2023-11-21T13:13:05;2.80;;;1.90;;
55609;SDS011;41486;52.502;13.486;2023-11-21T13:15:38;2.30;;;1.60;;
55609;SDS011;41486;52.502;13.486;2023-11-21T13:18:07;3.83;;;2.00;;
55609;SDS011;41486;52.502;13.486;2023-11-21T13:20:39;2.25;;;1.75;;
55609;SDS011;41486;52.502;13.486;2023-11-21T13:23:08;5.80;;;3.13;;
55609;SDS011;41486;52.502;13.486;2023-11-21T13:25:38;2.78;;;2.17;;
55609;SDS011;41486;52.502;13.486;2023-11-21T13:28:08;2.70;;;2.00;;
55609;SDS011;41486;52.502;13.486;2023-11-21T13:30:38;2.08;;;1.52;;
55609;SDS011;41486;52.502;13.486;2023-11-21T13:33:06;2.72;;;1.95;;
55609;SDS011;41486;52.502;13.486;2023-11-21T13:35:37;5.13;;;2.53;;
55609;SDS011;41486;52.502;13.486;2023-11-21T13:38:14;3.70;;;2.88;;
55609;SDS011;41486;52.502;13.486;2023-11-21T13:40:46;2.80;;;1.92;;
55609;SDS011;41486;52.502;13.486;2023-11-21T13:43:16;3.85;;;2.38;;
55609;SDS011;41486;52.502;13.486;2023-11-21T13:45:47;3.63;;;2.35;;
55609;SDS011;41486;52.502;13.486;2023-11-21T13:48:18;3.55;;;2.45;;
55609;SDS011;41486;52.502;13.486;2023-11-21T13:50:56;3.40;;;2.53;;
55609;SDS011;41486;52.502;13.486;2023-11-21T13:53:25;3.65;;;2.38;;
55609;SDS011;41486;52.502;13.486;2023-11-21T13:55:53;3.67;;;2.47;;
55609;SDS011;41486;52.502;13.486;2023-11-21T13:58:24;3.60;;;2.67;;
55609;SDS011;41486;52.502;13.486;2023-11-21T14:01:01;3.30;;;2.47;;
55609;SDS011;41486;52.502;13.486;2023-11-21T14:03:32;3.80;;;3.00;;
55609;SDS011;41486;52.502;13.486;2023-11-21T14:06:12;4.13;;;2.65;;
55609;SDS011;41486;52.502;13.486;2023-11-21T14:08:47;5.13;;;2.80;;
55609;SDS011;41486;52.502;13.486;2023-11-21T14:11:15;5.35;;;3.00;;
55609;SDS011;41486;52.502;13.486;2023-11-21T14:13:45;5.72;;;3.83;;
55609;SDS011;41486;52.502;13.486;2023-11-21T14:16:15;6.40;;;4.13;;
55609;SDS011;41486;52.502;13.486;2023-11-21T14:18:44;5.68;;;3.88;;
55609;SDS011;41486;52.502;13.486;2023-11-21T14:21:23;5.97;;;3.85;;
55609;SDS011;41486;52.502;13.486;2023-11-21T14:23:51;6.68;;;4.60;;
55609;SDS011;41486;52.502;13.486;2023-11-21T14:26:21;6.55;;;4.38;;
55609;SDS011;41486;52.502;13.486;2023-11-21T14:28:53;6.70;;;4.55;;
55609;SDS011;41486;52.502;13.486;2023-11-21T14:31:21;8.68;;;5.55;;
55609;SDS011;41486;52.502;13.486;2023-11-21T14:33:50;9.63;;;4.93;;
55609;SDS011;41486;52.502;13.486;2023-11-21T14:36:18;9.55;;;5.78;;
55609;SDS011;41486;52.502;13.486;2023-11-21T14:38:48;9.60;;;5.38;;
55609;SDS011;41486;52.502;13.486;2023-11-21T14:41:16;11.68;;;8.23;;
55609;SDS011;41486;52.502;13.486;2023-11-21T14:43:44;10.57;;;6.57;;
55609;SDS011;41486;52.502;13.486;2023-11-21T14:46:14;11.85;;;6.65;;
55609;SDS011;41486;52.502;13.486;2023-11-21T14:48:45;9.90;;;7.28;;
55609;SDS011;41486;52.502;13.486;2023-11-21T14:51:23;10.95;;;6.35;;